sensor_id;sensor_type;location;lat;lon;timestamp;pressure;altitude;pressure_sealevel;temperature;humidity
16030;BME280;34770;49.272;11.070;2022-07-19T00:00:27;98178.81;;;18.58;57.54
16030;BME280;34770;49.272;11.070;2022-07-19T00:02:52;98176.00;;;18.58;58.11
16030;BME280;34770;49.272;11.070;2022-07-19T00:05:18;98179.22;;;18.60;58.47
16030;BME280;34770;49.272;11.070;2022-07-19T00:07:45;98180.00;;;18.57;58.46
16030;BME280;34770;49.272;11.070;2022-07-19T00:10:12;98175.97;;;18.51;58.28
16030;BME280;34770;49.272;11.070;2022-07-19T00:12:38;98172.75;;;18.42;58.25
16030;BME280;34770;49.272;11.070;2022-07-19T00:15:06;98172.78;;;18.49;57.97
16030;BME280;34770;49.272;11.070;2022-07-19T00:17:32;98166.28;;;18.34;58.44
16030;BME280;34770;49.272;11.070;2022-07-19T00:19:58;98163.88;;;18.32;58.79
16030;BME280;34770;49.272;11.070;2022-07-19T00:22:23;98154.19;;;18.19;58.97
16030;BME280;34770;49.272;11.070;2022-07-19T00:24:48;98159.78;;;18.12;58.64
16030;BME280;34770;49.272;11.070;2022-07-19T00:27:14;98168.63;;;18.07;58.72
16030;BME280;34770;49.272;11.070;2022-07-19T00:29:39;98171.00;;;18.01;59.39
16030;BME280;34770;49.272;11.070;2022-07-19T00:32:05;98166.53;;;17.93;59.61
16030;BME280;34770;49.272;11.070;2022-07-19T00:34:30;98160.94;;;17.96;59.48
16030;BME280;34770;49.272;11.070;2022-07-19T00:36:56;98175.78;;;17.93;60.31
16030;BME280;34770;49.272;11.070;2022-07-19T00:39:21;98172.13;;;17.89;60.96
16030;BME280;34770;49.272;11.070;2022-07-19T00:41:47;98180.59;;;17.93;60.00
16030;BME280;34770;49.272;11.070;2022-07-19T00:44:12;98161.16;;;17.62;60.33
16030;BME280;34770;49.272;11.070;2022-07-19T00:46:38;98174.84;;;17.67;60.27
16030;BME280;34770;49.272;11.070;2022-07-19T00:49:04;98175.69;;;17.72;61.40
16030;BME280;34770;49.272;11.070;2022-07-19T00:51:33;98182.09;;;17.68;60.69
16030;BME280;34770;49.272;11.070;2022-07-19T00:54:00;98189.28;;;17.62;60.81
16030;BME280;34770;49.272;11.070;2022-07-19T00:56:26;98175.56;;;17.53;61.09
16030;BME280;34770;49.272;11.070;2022-07-19T00:58:52;98179.59;;;17.56;60.91
16030;BME280;34770;49.272;11.070;2022-07-19T01:01:19;98180.06;;;17.65;61.48
16030;BME280;34770;49.272;11.070;2022-07-19T01:03:44;98178.06;;;17.66;61.39
16030;BME280;34770;49.272;11.070;2022-07-19T01:06:10;98174.03;;;17.63;60.90
16030;BME280;34770;49.272;11.070;2022-07-19T01:08:36;98174.03;;;17.63;61.52
16030;BME280;34770;49.272;11.070;2022-07-19T01:11:04;98181.22;;;17.57;62.17
16030;BME280;34770;49.272;11.070;2022-07-19T01:13:30;98186.00;;;17.53;61.98
16030;BME280;34770;49.272;11.070;2022-07-19T01:15:56;98194.81;;;17.48;61.36
16030;BME280;34770;49.272;11.070;2022-07-19T01:18:21;98182.22;;;17.27;62.21
16030;BME280;34770;49.272;11.070;2022-07-19T01:20:47;98188.72;;;17.31;62.56
16030;BME280;34770;49.272;11.070;2022-07-19T01:23:12;98181.88;;;17.36;61.82
16030;BME280;34770;49.272;11.070;2022-07-19T01:25:38;98189.16;;;17.41;62.02
16030;BME280;34770;49.272;11.070;2022-07-19T01:28:05;98190.63;;;17.20;62.81
16030;BME280;34770;49.272;11.070;2022-07-19T01:30:31;98177.75;;;17.19;62.58
16030;BME280;34770;49.272;11.070;2022-07-19T01:32:56;98179.19;;;16.98;63.38
16030;BME280;34770;49.272;11.070;2022-07-19T01:35:22;98181.63;;;17.00;63.72
16030;BME280;34770;49.272;11.070;2022-07-19T01:37:48;98178.38;;;16.94;63.40
16030;BME280;34770;49.272;11.070;2022-07-19T01:40:15;98185.88;;;16.83;64.51
16030;BME280;34770;49.272;11.070;2022-07-19T01:42:41;98187.19;;;16.93;64.73
16030;BME280;34770;49.272;11.070;2022-07-19T01:45:08;98183.09;;;16.86;64.58
16030;BME280;34770;49.272;11.070;2022-07-19T01:47:35;98177.41;;;16.79;64.78
16030;BME280;34770;49.272;11.070;2022-07-19T01:50:02;98188.94;;;16.70;65.21
16030;BME280;34770;49.272;11.070;2022-07-19T01:52:28;98188.47;;;16.61;65.73
16030;BME280;34770;49.272;11.070;2022-07-19T01:54:53;98183.63;;;16.58;65.97
16030;BME280;34770;49.272;11.070;2022-07-19T01:57:19;98179.41;;;16.37;66.49
16030;BME280;34770;49.272;11.070;2022-07-19T01:59:44;98183.75;;;16.31;67.26
16030;BME280;34770;49.272;11.070;2022-07-19T02:02:09;98180.22;;;16.41;67.14
16030;BME280;34770;49.272;11.070;2022-07-19T02:04:35;98187.97;;;16.52;67.15
16030;BME280;34770;49.272;11.070;2022-07-19T02:07:00;98179.56;;;16.52;66.97
16030;BME280;34770;49.272;11.070;2022-07-19T02:09:26;98173.19;;;16.55;66.95
16030;BME280;34770;49.272;11.070;2022-07-19T02:11:51;98181.25;;;16.60;67.17
16030;BME280;34770;49.272;11.070;2022-07-19T02:14:17;98136.81;;;16.32;67.29
16030;BME280;34770;49.272;11.070;2022-07-19T02:16:43;98175.91;;;16.48;66.83
16030;BME280;34770;49.272;11.070;2022-07-19T02:19:09;98168.16;;;16.37;67.08
16030;BME280;34770;49.272;11.070;2022-07-19T02:21:35;98171.63;;;16.23;68.10
16030;BME280;34770;49.272;11.070;2022-07-19T02:24:00;98170.47;;;16.28;67.65
16030;BME280;34770;49.272;11.070;2022-07-19T02:26:26;98172.91;;;16.30;67.15
16030;BME280;34770;49.272;11.070;2022-07-19T02:28:51;98165.19;;;16.23;67.48
16030;BME280;34770;49.272;11.070;2022-07-19T02:31:18;98183.06;;;16.07;68.34
16030;BME280;34770;49.272;11.070;2022-07-19T02:33:43;98173.81;;;16.03;68.26
16030;BME280;34770;49.272;11.070;2022-07-19T02:36:09;98193.88;;;16.05;68.21
16030;BME280;34770;49.272;11.070;2022-07-19T02:38:35;98186.22;;;16.02;68.40
16030;BME280;34770;49.272;11.070;2022-07-19T02:41:00;98187.63;;;15.85;68.66
16030;BME280;34770;49.272;11.070;2022-07-19T02:43:26;98198.19;;;15.95;68.97
16030;BME280;34770;49.272;11.070;2022-07-19T02:45:52;98197.41;;;15.99;68.59
16030;BME280;34770;49.272;11.070;2022-07-19T02:48:17;98184.59;;;16.01;69.23
16030;BME280;34770;49.272;11.070;2022-07-19T02:50:42;98182.13;;;15.96;69.58
16030;BME280;34770;49.272;11.070;2022-07-19T02:53:08;98193.72;;;15.91;70.01
16030;BME280;34770;49.272;11.070;2022-07-19T02:55:33;98180.09;;;15.93;68.90
16030;BME280;34770;49.272;11.070;2022-07-19T02:57:59;98187.22;;;15.87;69.13
16030;BME280;34770;49.272;11.070;2022-07-19T03:00:24;98193.94;;;15.78;69.31
16030;BME280;34770;49.272;11.070;2022-07-19T03:02:50;98197.66;;;15.59;70.93
16030;BME280;34770;49.272;11.070;2022-07-19T03:05:16;98210.41;;;15.53;70.72
16030;BME280;34770;49.272;11.070;2022-07-19T03:07:41;98205.75;;;15.64;70.73
16030;BME280;34770;49.272;11.070;2022-07-19T03:10:07;98203.44;;;15.70;71.00
16030;BME280;34770;49.272;11.070;2022-07-19T03:12:33;98193.78;;;15.68;70.51
16030;BME280;34770;49.272;11.070;2022-07-19T03:14:59;98197.03;;;15.73;69.76
16030;BME280;34770;49.272;11.070;2022-07-19T03:17:24;98206.59;;;15.69;69.76
16030;BME280;34770;49.272;11.070;2022-07-19T03:19:49;98170.16;;;15.42;70.22
16030;BME280;34770;49.272;11.070;2022-07-19T03:22:15;98200.75;;;15.51;69.92
16030;BME280;34770;49.272;11.070;2022-07-19T03:24:40;98192.66;;;15.45;70.50
16030;BME280;34770;49.272;11.070;2022-07-19T03:27:06;98189.41;;;15.16;72.19
16030;BME280;34770;49.272;11.070;2022-07-19T03:29:31;98180.75;;;14.98;72.70
16030;BME280;34770;49.272;11.070;2022-07-19T03:31:57;98194.75;;;14.98;73.22
16030;BME280;34770;49.272;11.070;2022-07-19T03:34:23;98194.59;;;15.14;72.84
16030;BME280;34770;49.272;11.070;2022-07-19T03:36:48;98187.81;;;15.15;72.72
16030;BME280;34770;49.272;11.070;2022-07-19T03:39:13;98194.09;;;15.09;73.45
16030;BME280;34770;49.272;11.070;2022-07-19T03:41:39;98194.47;;;15.07;73.36
16030;BME280;34770;49.272;11.070;2022-07-19T03:44:04;98192.97;;;15.13;73.48
16030;BME280;34770;49.272;11.070;2022-07-19T03:46:30;98189.78;;;15.15;72.71
16030;BME280;34770;49.272;11.070;2022-07-19T03:48:56;98190.56;;;15.12;73.28
16030;BME280;34770;49.272;11.070;2022-07-19T03:51:23;98185.81;;;15.16;72.68
16030;BME280;34770;49.272;11.070;2022-07-19T03:53:48;98179.34;;;15.12;73.31
16030;BME280;34770;49.272;11.070;2022-07-19T03:56:14;98186.78;;;15.27;72.96
16030;BME280;34770;49.272;11.070;2022-07-19T03:58:40;98197.88;;;15.20;72.73
16030;BME280;34770;49.272;11.070;2022-07-19T04:01:05;98193.09;;;15.21;72.64
16030;BME280;34770;49.272;11.070;2022-07-19T04:03:36;98199.19;;;15.26;72.75
16030;BME280;34770;49.272;11.070;2022-07-19T04:06:02;98199.66;;;15.32;73.02
16030;BME280;34770;49.272;11.070;2022-07-19T04:08:27;98195.28;;;15.35;72.59
16030;BME280;34770;49.272;11.070;2022-07-19T04:10:53;98193.72;;;15.37;72.22
16030;BME280;34770;49.272;11.070;2022-07-19T04:13:18;98197.28;;;15.34;73.06
16030;BME280;34770;49.272;11.070;2022-07-19T04:15:43;98200.50;;;15.32;73.05
16030;BME280;34770;49.272;11.070;2022-07-19T04:18:09;98195.19;;;15.27;73.50
16030;BME280;34770;49.272;11.070;2022-07-19T04:20:34;98203.88;;;15.45;73.05
16030;BME280;34770;49.272;11.070;2022-07-19T04:22:59;98202.78;;;15.54;72.78
16030;BME280;34770;49.272;11.070;2022-07-19T04:25:25;98194.72;;;15.48;72.73
16030;BME280;34770;49.272;11.070;2022-07-19T04:27:50;98178.75;;;15.26;73.25
16030;BME280;34770;49.272;11.070;2022-07-19T04:30:16;98201.22;;;15.56;73.38
16030;BME280;34770;49.272;11.070;2022-07-19T04:32:41;98207.09;;;15.74;72.86
16030;BME280;34770;49.272;11.070;2022-07-19T04:35:07;98204.31;;;15.78;72.97
16030;BME280;34770;49.272;11.070;2022-07-19T04:37:33;98201.03;;;15.72;73.02
16030;BME280;34770;49.272;11.070;2022-07-19T04:39:58;98207.75;;;15.91;72.84
16030;BME280;34770;49.272;11.070;2022-07-19T04:42:24;98207.09;;;16.05;72.30
16030;BME280;34770;49.272;11.070;2022-07-19T04:44:49;98198.81;;;16.16;72.35
16030;BME280;34770;49.272;11.070;2022-07-19T04:47:15;98206.44;;;16.15;72.59
16030;BME280;34770;49.272;11.070;2022-07-19T04:49:40;98201.34;;;16.28;72.28
16030;BME280;34770;49.272;11.070;2022-07-19T04:52:05;98188.13;;;16.29;72.28
16030;BME280;34770;49.272;11.070;2022-07-19T04:54:31;98194.75;;;16.47;71.75
16030;BME280;34770;49.272;11.070;2022-07-19T04:56:56;98199.28;;;16.59;71.36
16030;BME280;34770;49.272;11.070;2022-07-19T04:59:22;98205.03;;;16.70;71.45
16030;BME280;34770;49.272;11.070;2022-07-19T05:01:47;98195.00;;;16.72;71.63
16030;BME280;34770;49.272;11.070;2022-07-19T05:04:12;98190.25;;;16.80;71.02
16030;BME280;34770;49.272;11.070;2022-07-19T05:06:38;98202.88;;;16.97;70.99
16030;BME280;34770;49.272;11.070;2022-07-19T05:09:03;98189.19;;;16.92;71.03
16030;BME280;34770;49.272;11.070;2022-07-19T05:11:29;98194.91;;;17.03;71.22
16030;BME280;34770;49.272;11.070;2022-07-19T05:13:54;98207.09;;;17.18;71.61
16030;BME280;34770;49.272;11.070;2022-07-19T05:16:19;98207.59;;;17.34;70.72
16030;BME280;34770;49.272;11.070;2022-07-19T05:18:45;98194.69;;;17.26;70.68
16030;BME280;34770;49.272;11.070;2022-07-19T05:21:10;98192.47;;;17.53;70.57
16030;BME280;34770;49.272;11.070;2022-07-19T05:23:36;98201.78;;;17.68;69.85
16030;BME280;34770;49.272;11.070;2022-07-19T05:26:01;98192.16;;;17.73;69.23
16030;BME280;34770;49.272;11.070;2022-07-19T05:28:26;98198.38;;;18.00;66.80
16030;BME280;34770;49.272;11.070;2022-07-19T05:30:52;98200.50;;;18.32;65.48
16030;BME280;34770;49.272;11.070;2022-07-19T05:33:17;98213.84;;;18.64;65.15
16030;BME280;34770;49.272;11.070;2022-07-19T05:35:42;98203.44;;;18.87;65.06
16030;BME280;34770;49.272;11.070;2022-07-19T05:38:08;98204.28;;;19.05;63.32
16030;BME280;34770;49.272;11.070;2022-07-19T05:40:34;98195.41;;;19.28;60.85
16030;BME280;34770;49.272;11.070;2022-07-19T05:42:59;98202.22;;;19.56;61.55
16030;BME280;34770;49.272;11.070;2022-07-19T05:45:26;98198.56;;;19.77;61.13
16030;BME280;34770;49.272;11.070;2022-07-19T05:47:51;98186.44;;;19.84;58.39
16030;BME280;34770;49.272;11.070;2022-07-19T05:50:16;98186.38;;;20.06;58.28
16030;BME280;34770;49.272;11.070;2022-07-19T05:52:42;98184.66;;;20.27;59.08
16030;BME280;34770;49.272;11.070;2022-07-19T05:55:07;98193.06;;;20.41;59.58
16030;BME280;34770;49.272;11.070;2022-07-19T05:57:33;98184.88;;;20.65;57.49
16030;BME280;34770;49.272;11.070;2022-07-19T05:59:58;98179.97;;;20.76;57.29
16030;BME280;34770;49.272;11.070;2022-07-19T06:02:24;98181.47;;;20.92;55.96
16030;BME280;34770;49.272;11.070;2022-07-19T06:04:50;98189.16;;;20.87;55.80
16030;BME280;34770;49.272;11.070;2022-07-19T06:07:15;98193.16;;;20.94;55.40
16030;BME280;34770;49.272;11.070;2022-07-19T06:09:41;98193.88;;;21.09;54.92
16030;BME280;34770;49.272;11.070;2022-07-19T06:12:06;98180.84;;;21.18;54.72
16030;BME280;34770;49.272;11.070;2022-07-19T06:14:31;98181.94;;;21.32;53.19
16030;BME280;34770;49.272;11.070;2022-07-19T06:16:57;98190.81;;;21.38;53.69
16030;BME280;34770;49.272;11.070;2022-07-19T06:19:22;98184.66;;;21.46;53.38
16030;BME280;34770;49.272;11.070;2022-07-19T06:21:48;98174.34;;;21.67;52.17
16030;BME280;34770;49.272;11.070;2022-07-19T06:24:13;98167.38;;;21.75;51.76
16030;BME280;34770;49.272;11.070;2022-07-19T06:26:39;98182.44;;;22.03;51.33
16030;BME280;34770;49.272;11.070;2022-07-19T06:29:04;98174.59;;;22.14;51.95
16030;BME280;34770;49.272;11.070;2022-07-19T06:31:29;98171.38;;;22.12;50.99
16030;BME280;34770;49.272;11.070;2022-07-19T06:33:55;98155.94;;;22.17;51.14
16030;BME280;34770;49.272;11.070;2022-07-19T06:36:20;98136.91;;;22.18;50.78
16030;BME280;34770;49.272;11.070;2022-07-19T06:38:46;98178.34;;;22.70;50.08
16030;BME280;34770;49.272;11.070;2022-07-19T06:41:13;98174.97;;;22.78;49.69
16030;BME280;34770;49.272;11.070;2022-07-19T06:43:40;98174.69;;;22.97;49.07
16030;BME280;34770;49.272;11.070;2022-07-19T06:46:06;98138.22;;;22.95;49.10
16030;BME280;34770;49.272;11.070;2022-07-19T06:48:32;98178.97;;;23.32;49.59
16030;BME280;34770;49.272;11.070;2022-07-19T06:50:58;98147.16;;;23.41;48.19
16030;BME280;34770;49.272;11.070;2022-07-19T06:53:24;98166.91;;;23.72;47.49
16030;BME280;34770;49.272;11.070;2022-07-19T06:55:49;98169.75;;;23.92;47.89
16030;BME280;34770;49.272;11.070;2022-07-19T06:58:15;98155.13;;;23.94;47.29
16030;BME280;34770;49.272;11.070;2022-07-19T07:00:40;98177.38;;;24.19;46.63
16030;BME280;34770;49.272;11.070;2022-07-19T07:03:06;98166.94;;;24.49;46.05
16030;BME280;34770;49.272;11.070;2022-07-19T07:05:32;98164.69;;;24.60;45.19
16030;BME280;34770;49.272;11.070;2022-07-19T07:07:57;98164.38;;;24.91;44.16
16030;BME280;34770;49.272;11.070;2022-07-19T07:10:23;98153.53;;;25.19;44.74
16030;BME280;34770;49.272;11.070;2022-07-19T07:12:48;98153.00;;;25.24;43.40
16030;BME280;34770;49.272;11.070;2022-07-19T07:15:14;98157.53;;;25.55;43.32
16030;BME280;34770;49.272;11.070;2022-07-19T07:17:40;98160.56;;;25.77;42.93
16030;BME280;34770;49.272;11.070;2022-07-19T07:20:07;98144.69;;;25.92;41.89
16030;BME280;34770;49.272;11.070;2022-07-19T07:22:36;98143.03;;;26.08;41.45
16030;BME280;34770;49.272;11.070;2022-07-19T07:25:02;98158.47;;;26.23;40.72
16030;BME280;34770;49.272;11.070;2022-07-19T07:27:28;98149.94;;;26.36;39.58
16030;BME280;34770;49.272;11.070;2022-07-19T07:29:53;98152.47;;;26.47;39.74
16030;BME280;34770;49.272;11.070;2022-07-19T07:32:19;98119.66;;;26.26;39.54
16030;BME280;34770;49.272;11.070;2022-07-19T07:34:45;98132.94;;;26.46;39.24
16030;BME280;34770;49.272;11.070;2022-07-19T07:37:10;98159.00;;;26.86;39.09
16030;BME280;34770;49.272;11.070;2022-07-19T07:39:36;98137.75;;;27.00;38.07
16030;BME280;34770;49.272;11.070;2022-07-19T07:42:03;98144.13;;;27.17;38.27
16030;BME280;34770;49.272;11.070;2022-07-19T07:44:30;98150.13;;;27.45;37.64
16030;BME280;34770;49.272;11.070;2022-07-19T07:46:55;98118.75;;;27.19;37.23
16030;BME280;34770;49.272;11.070;2022-07-19T07:49:20;98137.69;;;27.39;37.57
16030;BME280;34770;49.272;11.070;2022-07-19T07:51:46;98137.25;;;27.63;36.89
16030;BME280;34770;49.272;11.070;2022-07-19T07:54:12;98134.72;;;27.78;36.84
16030;BME280;34770;49.272;11.070;2022-07-19T07:56:37;98127.31;;;27.67;36.53
16030;BME280;34770;49.272;11.070;2022-07-19T07:59:02;98108.75;;;27.72;36.49
16030;BME280;34770;49.272;11.070;2022-07-19T08:01:28;98132.59;;;28.13;35.65
16030;BME280;34770;49.272;11.070;2022-07-19T08:03:55;98129.56;;;28.39;35.57
16030;BME280;34770;49.272;11.070;2022-07-19T08:06:20;98129.81;;;28.63;35.22
16030;BME280;34770;49.272;11.070;2022-07-19T08:08:45;98112.94;;;28.97;34.98
16030;BME280;34770;49.272;11.070;2022-07-19T08:11:11;98118.72;;;29.16;34.06
16030;BME280;34770;49.272;11.070;2022-07-19T08:13:36;98101.06;;;29.26;33.10
16030;BME280;34770;49.272;11.070;2022-07-19T08:16:02;98121.44;;;29.19;33.11
16030;BME280;34770;49.272;11.070;2022-07-19T08:18:27;98111.91;;;29.22;33.42
16030;BME280;34770;49.272;11.070;2022-07-19T08:20:52;98122.94;;;29.52;33.23
16030;BME280;34770;49.272;11.070;2022-07-19T08:23:18;98117.19;;;29.42;32.79
16030;BME280;34770;49.272;11.070;2022-07-19T08:25:43;98109.88;;;29.97;32.47
16030;BME280;34770;49.272;11.070;2022-07-19T08:28:08;98108.91;;;29.91;31.33
16030;BME280;34770;49.272;11.070;2022-07-19T08:30:34;98104.25;;;30.21;29.95
16030;BME280;34770;49.272;11.070;2022-07-19T08:33:01;98103.03;;;30.56;30.21
16030;BME280;34770;49.272;11.070;2022-07-19T08:35:26;98103.56;;;30.88;30.32
16030;BME280;34770;49.272;11.070;2022-07-19T08:37:52;98101.31;;;30.83;29.71
16030;BME280;34770;49.272;11.070;2022-07-19T08:40:17;98101.38;;;30.74;29.75
16030;BME280;34770;49.272;11.070;2022-07-19T08:42:42;98105.47;;;30.82;29.21
16030;BME280;34770;49.272;11.070;2022-07-19T08:45:09;98088.91;;;30.77;28.70
16030;BME280;34770;49.272;11.070;2022-07-19T08:47:36;98106.00;;;31.04;28.95
16030;BME280;34770;49.272;11.070;2022-07-19T08:50:06;98095.06;;;31.42;29.10
16030;BME280;34770;49.272;11.070;2022-07-19T08:52:33;98096.78;;;31.49;28.26
16030;BME280;34770;49.272;11.070;2022-07-19T08:54:59;98096.50;;;31.62;27.72
16030;BME280;34770;49.272;11.070;2022-07-19T08:57:24;98102.25;;;31.62;27.31
16030;BME280;34770;49.272;11.070;2022-07-19T09:00:09;98107.38;;;31.82;26.99
16030;BME280;34770;49.272;11.070;2022-07-19T09:02:36;98091.56;;;31.62;27.38
16030;BME280;34770;49.272;11.070;2022-07-19T09:05:10;98099.56;;;32.12;27.56
16030;BME280;34770;49.272;11.070;2022-07-19T09:07:37;98104.16;;;32.19;27.02
16030;BME280;34770;49.272;11.070;2022-07-19T09:10:17;98081.63;;;32.33;26.86
16030;BME280;34770;49.272;11.070;2022-07-19T09:13:06;98102.56;;;32.48;26.49
16030;BME280;34770;49.272;11.070;2022-07-19T09:15:40;98104.31;;;32.01;26.93
16030;BME280;34770;49.272;11.070;2022-07-19T09:18:23;98099.97;;;31.90;27.48
16030;BME280;34770;49.272;11.070;2022-07-19T09:20:53;98100.25;;;31.53;27.48
16030;BME280;34770;49.272;11.070;2022-07-19T09:23:20;98090.16;;;32.27;27.34
16030;BME280;34770;49.272;11.070;2022-07-19T09:25:49;98080.50;;;32.15;27.07
16030;BME280;34770;49.272;11.070;2022-07-19T09:28:17;98073.53;;;32.52;25.80
16030;BME280;34770;49.272;11.070;2022-07-19T09:30:48;98086.41;;;32.86;25.95
16030;BME280;34770;49.272;11.070;2022-07-19T09:33:21;98069.66;;;33.05;26.06
16030;BME280;34770;49.272;11.070;2022-07-19T09:35:55;98088.13;;;32.78;25.66
16030;BME280;34770;49.272;11.070;2022-07-19T09:40:50;98072.97;;;33.19;24.96
16030;BME280;34770;49.272;11.070;2022-07-19T09:43:16;98092.34;;;32.98;25.11
16030;BME280;34770;49.272;11.070;2022-07-19T09:45:42;98086.84;;;32.79;25.09
16030;BME280;34770;49.272;11.070;2022-07-19T09:48:08;98089.16;;;33.31;25.49
16030;BME280;34770;49.272;11.070;2022-07-19T09:50:33;98088.25;;;33.25;25.25
16030;BME280;34770;49.272;11.070;2022-07-19T09:53:02;98078.19;;;33.35;24.55
16030;BME280;34770;49.272;11.070;2022-07-19T09:55:27;98084.84;;;33.42;24.89
16030;BME280;34770;49.272;11.070;2022-07-19T09:57:56;98081.41;;;33.02;25.16
16030;BME280;34770;49.272;11.070;2022-07-19T10:00:23;98087.19;;;33.22;24.86
16030;BME280;34770;49.272;11.070;2022-07-19T10:02:54;98081.25;;;33.73;24.44
16030;BME280;34770;49.272;11.070;2022-07-19T10:05:20;98080.94;;;34.44;24.16
16030;BME280;34770;49.272;11.070;2022-07-19T10:07:46;98072.72;;;34.37;23.93
16030;BME280;34770;49.272;11.070;2022-07-19T10:10:15;98080.81;;;34.33;24.04
16030;BME280;34770;49.272;11.070;2022-07-19T10:12:42;98053.25;;;34.06;23.77
16030;BME280;34770;49.272;11.070;2022-07-19T10:15:11;98066.00;;;34.19;23.49
16030;BME280;34770;49.272;11.070;2022-07-19T10:17:50;98055.88;;;34.35;23.91
16030;BME280;34770;49.272;11.070;2022-07-19T10:20:21;98062.94;;;34.29;23.96
16030;BME280;34770;49.272;11.070;2022-07-19T10:22:48;98068.34;;;34.47;23.57
16030;BME280;34770;49.272;11.070;2022-07-19T10:25:16;98048.91;;;34.16;23.91
16030;BME280;34770;49.272;11.070;2022-07-19T10:27:52;98042.34;;;34.47;23.13
16030;BME280;34770;49.272;11.070;2022-07-19T10:30:21;98051.91;;;34.65;22.96
16030;BME280;34770;49.272;11.070;2022-07-19T10:32:49;98039.78;;;34.55;23.69
16030;BME280;34770;49.272;11.070;2022-07-19T10:43:12;98021.78;;;35.26;22.70
16030;BME280;34770;49.272;11.070;2022-07-19T10:51:04;98032.28;;;35.18;22.42
16030;BME280;34770;49.272;11.070;2022-07-19T10:56:37;98014.59;;;35.82;21.56
16030;BME280;34770;49.272;11.070;2022-07-19T10:59:05;98034.31;;;35.61;21.38
16030;BME280;34770;49.272;11.070;2022-07-19T11:01:33;98016.22;;;35.94;21.56
16030;BME280;34770;49.272;11.070;2022-07-19T11:04:25;98024.13;;;35.94;21.44
16030;BME280;34770;49.272;11.070;2022-07-19T11:07:08;98007.00;;;35.96;21.31
16030;BME280;34770;49.272;11.070;2022-07-19T11:09:56;98008.31;;;36.63;21.20
16030;BME280;34770;49.272;11.070;2022-07-19T11:12:30;98013.84;;;36.61;20.76
16030;BME280;34770;49.272;11.070;2022-07-19T11:14:58;98014.59;;;36.90;21.11
16030;BME280;34770;49.272;11.070;2022-07-19T11:17:24;97990.94;;;36.29;21.28
16030;BME280;34770;49.272;11.070;2022-07-19T11:22:25;98012.25;;;36.60;21.33
16030;BME280;34770;49.272;11.070;2022-07-19T11:24:51;97988.22;;;36.82;21.32
16030;BME280;34770;49.272;11.070;2022-07-19T11:27:16;98004.56;;;37.50;20.51
16030;BME280;34770;49.272;11.070;2022-07-19T11:29:55;98012.94;;;37.06;20.50
16030;BME280;34770;49.272;11.070;2022-07-19T11:32:21;97996.19;;;36.25;21.24
16030;BME280;34770;49.272;11.070;2022-07-19T11:35:01;97995.94;;;36.46;21.57
16030;BME280;34770;49.272;11.070;2022-07-19T11:37:31;97989.31;;;36.62;21.26
16030;BME280;34770;49.272;11.070;2022-07-19T11:39:57;97989.28;;;36.85;20.63
16030;BME280;34770;49.272;11.070;2022-07-19T11:42:35;97984.84;;;36.61;20.93
16030;BME280;34770;49.272;11.070;2022-07-19T11:45:15;97983.47;;;36.79;20.83
16030;BME280;34770;49.272;11.070;2022-07-19T11:47:52;97996.38;;;35.42;22.15
16030;BME280;34770;49.272;11.070;2022-07-19T11:50:22;97981.19;;;34.92;22.61
16030;BME280;34770;49.272;11.070;2022-07-19T11:52:55;97976.09;;;35.47;22.71
16030;BME280;34770;49.272;11.070;2022-07-19T11:55:33;97974.34;;;36.13;22.02
16030;BME280;34770;49.272;11.070;2022-07-19T11:57:59;97975.91;;;36.36;21.58
16030;BME280;34770;49.272;11.070;2022-07-19T12:00:24;97961.94;;;36.52;20.88
16030;BME280;34770;49.272;11.070;2022-07-19T12:02:57;97967.72;;;36.57;20.71
16030;BME280;34770;49.272;11.070;2022-07-19T12:05:24;97953.69;;;36.84;20.64
16030;BME280;34770;49.272;11.070;2022-07-19T12:07:51;97968.16;;;36.84;20.53
16030;BME280;34770;49.272;11.070;2022-07-19T12:10:46;97967.13;;;37.46;20.24
16030;BME280;34770;49.272;11.070;2022-07-19T12:13:26;97973.19;;;37.48;19.42
16030;BME280;34770;49.272;11.070;2022-07-19T12:15:54;97958.16;;;36.85;20.19
16030;BME280;34770;49.272;11.070;2022-07-19T12:18:23;97974.41;;;37.17;20.11
16030;BME280;34770;49.272;11.070;2022-07-19T12:21:19;97982.75;;;37.32;19.91
16030;BME280;34770;49.272;11.070;2022-07-19T12:24:16;97966.16;;;37.27;19.84
16030;BME280;34770;49.272;11.070;2022-07-19T12:29:23;97965.25;;;37.55;19.78
16030;BME280;34770;49.272;11.070;2022-07-19T12:31:51;97945.03;;;36.67;20.04
16030;BME280;34770;49.272;11.070;2022-07-19T12:34:18;97940.66;;;36.44;20.43
16030;BME280;34770;49.272;11.070;2022-07-19T12:36:44;97954.56;;;36.56;20.54
16030;BME280;34770;49.272;11.070;2022-07-19T12:39:29;97951.94;;;37.23;20.56
16030;BME280;34770;49.272;11.070;2022-07-19T12:42:00;97945.25;;;36.92;19.70
16030;BME280;34770;49.272;11.070;2022-07-19T12:44:26;97937.94;;;37.75;19.40
16030;BME280;34770;49.272;11.070;2022-07-19T12:46:52;97929.81;;;37.20;19.27
16030;BME280;34770;49.272;11.070;2022-07-19T12:49:18;97905.31;;;37.57;19.47
16030;BME280;34770;49.272;11.070;2022-07-19T12:51:43;97930.50;;;37.43;19.29
16030;BME280;34770;49.272;11.070;2022-07-19T12:54:10;97918.72;;;38.33;19.22
16030;BME280;34770;49.272;11.070;2022-07-19T12:56:36;97910.22;;;38.35;19.17
16030;BME280;34770;49.272;11.070;2022-07-19T12:59:02;97903.63;;;38.34;19.02
16030;BME280;34770;49.272;11.070;2022-07-19T13:01:46;97902.69;;;38.70;18.88
16030;BME280;34770;49.272;11.070;2022-07-19T13:04:12;97910.91;;;38.16;19.31
16030;BME280;34770;49.272;11.070;2022-07-19T13:06:37;97883.69;;;38.19;19.08
16030;BME280;34770;49.272;11.070;2022-07-19T13:09:03;97899.31;;;38.66;18.99
16030;BME280;34770;49.272;11.070;2022-07-19T13:11:28;97918.03;;;38.70;18.93
16030;BME280;34770;49.272;11.070;2022-07-19T13:13:53;97905.19;;;39.04;18.63